Howe, Illinois
Current Conditions -  °F | °C
As of 9:35 AM on Saturday 22 Nov 2014 (Local Time) from KVYS Reporting Station
Haze Haze  
Wind Chill: 39°   Ceiling: 1500
Heat Index: 43°   Visibility: 5mi
Dew Point: 40°   Wind: 8mph
Humidity: 88%   Direction: 190°S
Pressure: 29.99"   Gusts: NA
Location:  41.3278°N, 89.2998°W
Report Text: KVYS 221535Z AUTO 19007KT 5SM BR OVC015 06/05 A2999 RMK AO2 T00630045
Loading
Personal Weather Stations






























Interactive Weather Map New forecast layout! Learn more

10-Day Weather Forecast

Advertisements
Track Severe Weather on mobile